Time;durP1;ratioP1;P1;durP2;ratioP2;P2;SDS_P1;SDS_P2;PMS_P1;PMS_P2;Temp;Humidity;BMP_temperature;BMP_pressure;BME280_temperature;BME280_humidity;BME280_pressure;Samples;Min_cycle;Max_cycle;Signal;HPM_P1;HPM_P2
2021/12/27 00:02:16;;;;;;;58.83;27.17;;;;;;;0.92;91.47;100279.88;5066960;28;20032;-66
2021/12/27 00:04:42;;;;;;;72.18;26.70;;;;;;;0.95;91.43;100278.97;5065855;28;20487;-67
2021/12/27 00:07:08;;;;;;;58.42;24.08;;;;;;;0.98;91.35;100281.56;5065985;28;20051;-66
2021/12/27 00:09:35;;;;;;;69.88;26.20;;;;;;;1.00;91.54;100282.44;5066121;28;20391;-65
2021/12/27 00:12:00;;;;;;;60.22;25.23;;;;;;;1.04;91.46;100278.97;5064962;28;20093;-65
2021/12/27 00:14:26;;;;;;;61.70;25.73;;;;;;;1.04;91.49;100278.09;5065271;28;20495;-65
2021/12/27 00:16:51;;;;;;;58.63;26.05;;;;;;;1.04;91.50;100276.38;5064528;28;20028;-66
2021/12/27 00:19:16;;;;;;;62.58;27.35;;;;;;;1.07;91.49;100265.09;5066377;28;20029;-66
2021/12/27 00:21:42;;;;;;;71.57;27.02;;;;;;;1.09;91.58;100271.16;5059204;28;20054;-65
2021/12/27 00:24:07;;;;;;;58.92;26.08;;;;;;;1.09;91.46;100261.63;5053743;28;20036;-65
2021/12/27 00:26:32;;;;;;;65.00;26.27;;;;;;;1.10;91.55;100258.19;5058580;28;20035;-66
2021/12/27 00:28:58;;;;;;;61.45;25.70;;;;;;;1.13;91.55;100259.91;5064127;28;20040;-64
2021/12/27 00:31:23;;;;;;;67.70;26.98;;;;;;;1.16;91.40;100252.09;5065636;28;20482;-65
2021/12/27 00:33:48;;;;;;;61.72;27.20;;;;;;;1.15;91.44;100245.19;5066102;28;20028;-65
2021/12/27 00:36:14;;;;;;;64.38;26.55;;;;;;;1.17;91.43;100242.59;5063872;28;20052;-65
2021/12/27 00:38:39;;;;;;;58.60;24.25;;;;;;;1.22;91.41;100243.41;5066886;28;20039;-64
2021/12/27 00:41:05;;;;;;;58.65;26.38;;;;;;;1.23;91.48;100248.59;5065002;28;20022;-65
2021/12/27 00:43:30;;;;;;;57.88;25.52;;;;;;;1.24;91.42;100246.88;5065332;28;20477;-66
2021/12/27 00:45:56;;;;;;;63.75;26.08;;;;;;;1.26;91.45;100243.41;5065558;28;20032;-64
2021/12/27 00:48:21;;;;;;;60.35;25.90;;;;;;;1.29;91.35;100239.06;5065618;28;20024;-66
2021/12/27 00:50:46;;;;;;;68.40;27.38;;;;;;;1.29;91.68;100228.69;5065385;28;20024;-63
2021/12/27 00:53:12;;;;;;;57.80;26.55;;;;;;;1.29;91.48;100226.94;5059480;28;20024;-66
2021/12/27 00:55:37;;;;;;;65.45;27.80;;;;;;;1.29;91.73;100218.31;5055542;28;20115;-65
2021/12/27 00:58:02;;;;;;;60.45;24.27;;;;;;;1.29;91.73;100213.97;5053102;28;20025;-65
2021/12/27 01:00:28;;;;;;;59.55;23.42;;;;;;;1.40;91.59;100216.50;5044726;28;20491;-65
2021/12/27 01:02:54;;;;;;;61.65;27.25;;;;;;;1.35;91.55;100210.47;5054384;28;20112;-67
2021/12/27 01:05:21;;;;;;;57.45;25.35;;;;;;;1.39;91.66;100201.81;5066054;28;20060;-66
2021/12/27 01:07:46;;;;;;;44.22;20.65;;;;;;;1.41;91.41;100205.22;5072777;28;20024;-65
2021/12/27 01:17:42;;;;;;;71.05;28.30;;;;;;;1.40;91.66;100206.13;5064502;28;20390;-67
2021/12/27 01:20:10;;;;;;;65.45;27.45;;;;;;;1.42;91.59;100206.09;5063044;28;20024;-65
2021/12/27 01:22:35;;;;;;;84.82;28.83;;;;;;;1.42;91.90;100204.38;5064294;28;20024;-65
2021/12/27 01:25:01;;;;;;;75.25;27.23;;;;;;;1.44;91.66;100205.22;5064368;28;20436;-64
2021/12/27 01:27:26;;;;;;;69.00;28.65;;;;;;;1.45;91.97;100196.56;5063294;28;20074;-64
2021/12/27 01:29:52;;;;;;;70.00;26.45;;;;;;;1.48;91.87;100196.53;5064287;28;20052;-64
2021/12/27 01:32:17;;;;;;;76.00;27.88;;;;;;;1.48;92.05;100196.53;5064887;28;20043;-67
2021/12/27 01:34:42;;;;;;;62.47;25.80;;;;;;;1.53;91.91;100196.50;5059194;28;20024;-65
2021/12/27 01:37:08;;;;;;;66.50;26.38;;;;;;;1.57;92.08;100197.34;5048941;28;20120;-65
2021/12/27 01:39:33;;;;;;;52.85;24.40;;;;;;;1.59;91.68;100190.41;5064583;28;20102;-65
2021/12/27 01:41:59;;;;;;;55.42;25.17;;;;;;;1.61;91.46;100191.25;5065338;28;20017;-65
2021/12/27 01:44:24;;;;;;;44.67;23.05;;;;;;;1.64;91.41;100191.25;5062196;28;20029;-65
2021/12/27 01:46:52;;;;;;;45.92;23.02;;;;;;;1.68;91.35;100192.94;5065812;28;20162;-66
2021/12/27 01:49:17;;;;;;;38.38;20.48;;;;;;;1.70;91.31;100198.13;5064365;28;20028;-66
2021/12/27 01:51:44;;;;;;;41.25;20.52;;;;;;;1.72;91.21;100194.63;5065989;28;20036;-66
2021/12/27 01:54:09;;;;;;;43.03;21.73;;;;;;;1.72;91.14;100198.97;5064321;28;20021;-65
2021/12/27 01:56:35;;;;;;;33.80;18.13;;;;;;;1.73;91.24;100191.19;5064690;28;20356;-65
2021/12/27 01:59:00;;;;;;;34.60;19.02;;;;;;;1.74;91.24;100190.28;5063585;28;20093;-65
2021/12/27 02:01:26;;;;;;;37.17;21.10;;;;;;;1.74;91.15;100187.69;5082218;28;20043;-65
2021/12/27 02:03:53;;;;;;;45.78;22.15;;;;;;;1.75;91.42;100188.56;5084483;28;20035;-64
2021/12/27 02:06:19;;;;;;;42.67;21.10;;;;;;;1.75;91.41;100183.38;5023337;22;20088;-66
2021/12/27 02:08:45;;;;;;;43.05;21.23;;;;;;;1.76;91.37;100185.97;4987997;28;20045;-64
2021/12/27 02:11:13;;;;;;;45.45;22.75;;;;;;;1.75;91.19;100181.63;5005987;28;20026;-67
2021/12/27 02:13:43;;;;;;;48.38;22.85;;;;;;;1.79;91.44;100187.66;5004696;28;20113;-66
2021/12/27 02:16:09;;;;;;;;;;;;;;;1.80;91.62;100180.75;5005662;28;20128;-65
2021/12/27 02:18:35;;;;;;;47.78;22.73;;;;;;;1.79;91.70;100181.59;5005592;28;19914;-64
2021/12/27 02:21:01;;;;;;;46.08;22.40;;;;;;;1.83;91.63;100178.09;5006130;28;20484;-66
2021/12/27 02:23:26;;;;;;;43.90;22.02;;;;;;;1.85;91.72;100182.44;5004910;28;20077;-65
2021/12/27 02:25:51;;;;;;;34.17;18.58;;;;;;;1.92;91.68;100180.63;5004380;28;20026;-65
2021/12/27 02:28:18;;;;;;;44.42;22.10;;;;;;;1.88;91.65;100179.81;5004964;28;20030;-65
2021/12/27 02:30:45;;;;;;;47.63;22.15;;;;;;;1.91;91.60;100176.31;4988395;28;20487;-64
2021/12/27 02:33:11;;;;;;;39.88;17.48;;;;;;;1.92;91.76;100174.59;5018859;28;20033;-64
2021/12/27 02:35:41;;;;;;;47.05;21.35;;;;;;;1.95;91.67;100172.81;5026737;28;20027;-64
2021/12/27 02:38:11;;;;;;;29.25;16.52;;;;;;;1.97;91.37;100178.00;5016428;28;20034;-66
2021/12/27 02:40:37;;;;;;;39.38;18.85;;;;;;;1.98;91.56;100183.16;5009001;28;20120;-68
2021/12/27 02:43:09;;;;;;;41.65;20.15;;;;;;;1.96;91.29;100184.91;5015443;28;20372;-66
2021/12/27 02:45:49;;;;;;;43.58;18.45;;;;;;;1.97;91.42;100176.25;5028763;28;20502;-67
2021/12/27 02:48:15;;;;;;;38.05;20.02;;;;;;;1.99;91.75;100178.84;5019611;28;20591;-65
2021/12/27 02:50:43;;;;;;;36.30;16.80;;;;;;;2.01;91.50;100170.16;5008987;28;20028;-68
2021/12/27 02:53:09;;;;;;;40.78;19.52;;;;;;;2.02;91.47;100169.28;5008287;28;20518;-68
2021/12/27 02:55:35;;;;;;;48.78;24.45;;;;;;;2.01;91.25;100167.56;5008859;28;20080;-67
2021/12/27 02:58:01;;;;;;;59.55;24.15;;;;;;;2.02;91.57;100171.88;5008330;28;20026;-66
2021/12/27 03:00:30;;;;;;;61.80;27.45;;;;;;;2.03;91.70;100167.53;5009074;28;20037;-67
2021/12/27 03:02:56;;;;;;;50.00;24.48;;;;;;;2.05;91.63;100170.13;5008294;28;20030;-67
2021/12/27 03:05:24;;;;;;;62.38;28.00;;;;;;;2.08;91.75;100164.91;4990691;28;20034;-65
2021/12/27 03:07:51;;;;;;;64.53;29.33;;;;;;;2.12;91.78;100161.38;5008140;28;20400;-65
2021/12/27 03:10:24;;;;;;;49.90;21.90;;;;;;;2.16;91.50;100163.06;5008035;28;20022;-66
2021/12/27 03:12:50;;;;;;;66.85;26.98;;;;;;;2.16;91.59;100155.28;5006564;28;20476;-65
2021/12/27 03:15:17;;;;;;;61.72;25.83;;;;;;;2.19;91.30;100155.25;5008583;28;20018;-65
2021/12/27 03:17:44;;;;;;;57.20;24.30;;;;;;;2.16;91.59;100152.69;5007925;28;20026;-65
2021/12/27 03:20:11;;;;;;;60.55;22.42;;;;;;;2.13;91.37;100148.38;5008742;28;20022;-66
2021/12/27 03:22:41;;;;;;;60.58;22.58;;;;;;;2.16;91.31;100147.47;5013151;28;20083;-65
2021/12/27 03:25:08;;;;;;;92.03;32.83;;;;;;;2.13;91.63;100142.31;5027989;28;20061;-65
2021/12/27 03:27:34;;;;;;;73.18;24.48;;;;;;;2.18;91.86;100134.47;5022734;28;20373;-65
2021/12/27 03:29:59;;;;;;;80.78;27.50;;;;;;;2.17;91.95;100138.81;5008266;28;20033;-65
2021/12/27 03:32:24;;;;;;;103.22;34.88;;;;;;;2.17;91.75;100138.81;5009105;28;20046;-65
2021/12/27 03:35:04;;;;;;;101.65;32.13;;;;;;;2.17;91.89;100132.75;5027764;28;20443;-66
2021/12/27 03:37:29;;;;;;;;;;;;;;;2.19;91.98;100126.66;5025841;28;20025;-64
2021/12/27 03:39:55;;;;;;;92.95;31.10;;;;;;;2.19;92.16;100134.44;5007923;28;19920;-65
2021/12/27 03:42:20;;;;;;;68.15;26.48;;;;;;;2.22;92.12;100123.16;5007291;28;20072;-64
2021/12/27 03:44:45;;;;;;;91.72;30.77;;;;;;;2.22;92.11;100116.22;5007213;28;20117;-65
2021/12/27 03:47:11;;;;;;;93.70;32.65;;;;;;;2.23;92.14;100109.31;5006822;28;20378;-66
2021/12/27 03:49:37;;;;;;;81.32;29.75;;;;;;;2.25;92.20;100112.72;4990377;28;20022;-64
2021/12/27 03:52:03;;;;;;;83.70;30.05;;;;;;;2.28;92.17;100115.28;5006399;28;20034;-65
2021/12/27 03:54:28;;;;;;;93.40;34.25;;;;;;;2.29;91.97;100105.75;5007734;28;20054;-65
2021/12/27 03:56:53;;;;;;;95.90;33.97;;;;;;;2.29;92.22;100103.16;5005932;28;20076;-64
2021/12/27 04:01:44;;;;;;;57.63;23.80;;;;;;;2.39;92.40;100107.38;5007529;28;20117;-57
2021/12/27 04:04:10;;;;;;;70.50;28.65;;;;;;;2.43;92.20;100109.06;5007184;28;20073;-65
2021/12/27 04:06:35;;;;;;;77.35;25.30;;;;;;;2.45;92.10;100115.13;5006637;28;20038;-65
2021/12/27 04:09:00;;;;;;;77.22;27.45;;;;;;;2.48;92.23;100096.88;5006266;28;20072;-64
2021/12/27 04:11:26;;;;;;;68.25;25.38;;;;;;;2.53;92.06;100099.41;5006899;28;20052;-64
2021/12/27 04:13:51;;;;;;;65.05;23.75;;;;;;;2.55;92.00;100100.25;5005976;28;20057;-64
2021/12/27 04:16:17;;;;;;;79.72;29.48;;;;;;;2.53;91.86;100096.81;5007115;28;20076;-64
2021/12/27 04:18:42;;;;;;;74.25;28.05;;;;;;;2.58;91.80;100094.13;5006541;28;20026;-65
2021/12/27 04:21:07;;;;;;;82.78;31.13;;;;;;;2.59;91.74;100098.47;5006922;28;20030;-66
2021/12/27 04:23:33;;;;;;;77.40;28.65;;;;;;;2.59;91.75;100098.47;5006211;28;20030;-65
2021/12/27 04:25:58;;;;;;;78.70;26.88;;;;;;;2.64;91.98;100094.94;4989215;28;20088;-65
2021/12/27 04:28:24;;;;;;;67.22;23.83;;;;;;;2.67;91.81;100086.22;4988094;28;20030;-65
2021/12/27 04:30:49;;;;;;;58.75;21.90;;;;;;;2.69;92.09;100089.66;5007434;28;20014;-64
2021/12/27 04:33:15;;;;;;;92.45;30.20;;;;;;;2.71;92.10;100087.88;5006097;28;20040;-64
2021/12/27 04:35:40;;;;;;;70.28;22.13;;;;;;;2.76;91.78;100086.09;5007278;28;20014;-65
2021/12/27 04:38:06;;;;;;;88.35;33.00;;;;;;;2.74;91.91;100080.03;5005371;28;20210;-65
2021/12/27 04:40:34;;;;;;;73.63;25.23;;;;;;;2.72;92.00;100083.56;5007490;28;20025;-65
2021/12/27 04:43:04;;;;;;;68.40;25.90;;;;;;;2.73;91.92;100080.06;5004781;28;20022;-65
2021/12/27 04:45:30;;;;;;;76.78;27.10;;;;;;;2.75;91.89;100075.72;5006565;28;20037;-65
2021/12/27 04:47:55;;;;;;;88.40;24.65;;;;;;;2.80;91.95;100075.66;5005766;28;20029;-64
2021/12/27 04:50:23;;;;;;;80.80;27.08;;;;;;;2.77;91.88;100067.00;5022252;28;20104;-65
2021/12/27 04:52:50;;;;;;;89.50;27.85;;;;;;;2.81;91.71;100064.34;5025897;28;20049;-65
2021/12/27 04:55:16;;;;;;;116.40;26.20;;;;;;;2.82;91.86;100063.47;5011365;28;20056;-65
2021/12/27 04:57:41;;;;;;;58.45;19.73;;;;;;;2.83;91.81;100063.44;5005551;28;20018;-66
2021/12/27 05:00:07;;;;;;;50.88;20.20;;;;;;;2.86;91.93;100070.38;5005724;28;20153;-64
2021/12/27 05:02:33;;;;;;;83.45;28.63;;;;;;;2.82;91.83;100066.94;4988498;28;20026;-64
2021/12/27 05:04:58;;;;;;;80.90;27.55;;;;;;;2.87;91.82;100072.94;5006676;28;20049;-64
2021/12/27 05:07:23;;;;;;;65.60;21.13;;;;;;;2.88;92.02;100073.78;5006141;28;20032;-65
2021/12/27 05:09:49;;;;;;;80.20;25.70;;;;;;;2.85;92.08;100068.63;4986792;28;20108;-65
2021/12/27 05:12:14;;;;;;;193.95;35.17;;;;;;;2.82;91.93;100064.34;5006240;28;20032;-65
2021/12/27 05:14:39;;;;;;;72.30;24.13;;;;;;;2.84;92.18;100059.09;5005782;28;20026;-64
2021/12/27 05:17:05;;;;;;;92.32;27.42;;;;;;;2.86;92.06;100054.75;5023728;28;20045;-65
2021/12/27 05:19:30;;;;;;;147.65;33.83;;;;;;;2.86;92.14;100055.59;5025437;28;20083;-64
2021/12/27 05:21:55;;;;;;;207.20;35.47;;;;;;;2.86;92.15;100057.34;5009855;28;20053;-64
2021/12/27 05:24:22;;;;;;;115.93;30.33;;;;;;;2.90;92.36;100043.41;5005870;28;20046;-64
2021/12/27 05:26:49;;;;;;;83.35;26.67;;;;;;;2.90;92.26;100052.09;4987759;28;20026;-65
2021/12/27 05:29:15;;;;;;;154.20;34.70;;;;;;;2.90;91.91;100051.22;4987157;28;20030;-62
2021/12/27 05:31:40;;;;;;;299.98;39.72;;;;;;;2.90;92.32;100051.22;4996464;28;20041;-64
2021/12/27 05:34:05;;;;;;;317.17;40.38;;;;;;;2.89;92.33;100045.16;4988170;28;20073;-64
2021/12/27 05:36:30;;;;;;;77.93;26.52;;;;;;;2.93;92.35;100039.91;5004910;28;20224;-64
2021/12/27 05:38:56;;;;;;;215.20;34.75;;;;;;;2.93;92.51;100040.75;5006136;28;20061;-63
2021/12/27 05:41:21;;;;;;;98.38;26.42;;;;;;;2.97;92.31;100031.16;5004496;28;20123;-64
2021/12/27 05:43:47;;;;;;;322.15;38.60;;;;;;;3.00;92.34;100034.56;5025566;28;20034;-64
2021/12/27 05:46:12;;;;;;;116.20;34.88;;;;;;;2.98;92.29;100032.91;5025159;28;20037;-63
2021/12/27 05:48:37;;;;;;;147.55;34.72;;;;;;;2.98;92.38;100028.53;5009323;28;20126;-63
2021/12/27 05:51:03;;;;;;;59.85;20.38;;;;;;;3.03;92.37;100026.72;5003440;28;20018;-65
2021/12/27 05:53:28;;;;;;;301.65;38.50;;;;;;;3.03;92.37;100038.88;5006105;28;20033;-64
2021/12/27 05:55:53;;;;;;;192.40;36.42;;;;;;;2.99;92.41;100035.47;5006007;28;20022;-65
2021/12/27 05:58:19;;;;;;;138.30;35.95;;;;;;;2.99;92.84;100040.69;5004614;28;20021;-65
2021/12/27 06:00:44;;;;;;;136.43;36.03;;;;;;;3.00;92.63;100028.50;5002406;28;20026;-60
2021/12/27 06:03:10;;;;;;;125.63;36.60;;;;;;;2.99;92.57;100035.47;5005501;28;20014;-65
2021/12/27 06:05:35;;;;;;;131.95;35.05;;;;;;;3.02;92.56;100042.38;5005449;28;20542;-65
2021/12/27 06:08:01;;;;;;;127.18;36.38;;;;;;;3.00;92.62;100042.38;5005795;28;20033;-64
2021/12/27 06:10:27;;;;;;;122.13;36.08;;;;;;;3.03;92.68;100047.53;5009101;28;20029;-64
2021/12/27 06:12:53;;;;;;;123.13;35.40;;;;;;;3.08;92.68;100041.41;5011172;28;20037;-63
2021/12/27 06:15:18;;;;;;;170.45;37.72;;;;;;;3.09;92.20;100051.78;5009570;28;20034;-65
2021/12/27 06:17:43;;;;;;;130.60;37.63;;;;;;;3.14;92.62;100043.91;5009003;28;20033;-63
2021/12/27 06:20:14;;;;;;;110.57;31.35;;;;;;;3.15;92.22;100033.47;5007248;28;20037;-64
2021/12/27 06:22:46;;;;;;;154.63;38.33;;;;;;;3.18;92.35;100035.16;5010179;28;20392;-65
2021/12/27 06:25:11;;;;;;;150.85;40.05;;;;;;;3.21;92.54;100032.50;5011577;28;20778;-63
2021/12/27 06:27:37;;;;;;;99.82;27.75;;;;;;;3.25;92.39;100035.94;5027569;28;20053;-64
2021/12/27 06:30:07;;;;;;;127.93;35.47;;;;;;;3.28;92.63;100023.72;5007231;28;20504;-64
2021/12/27 06:32:32;;;;;;;132.02;34.92;;;;;;;3.29;92.52;100022.81;4986038;28;20492;-64
2021/12/27 06:34:58;;;;;;;131.32;31.83;;;;;;;3.38;92.31;100032.25;4990528;28;20085;-64
2021/12/27 06:37:23;;;;;;;159.43;42.72;;;;;;;3.37;92.29;100027.91;5001872;28;20025;-64
2021/12/27 06:39:48;;;;;;;125.45;35.88;;;;;;;3.36;92.22;100034.00;4991206;28;20030;-65
2021/12/27 06:42:13;;;;;;;166.85;42.60;;;;;;;3.35;92.04;100032.28;4990576;28;20057;-65
2021/12/27 06:44:39;;;;;;;183.95;44.70;;;;;;;3.36;92.32;100044.41;5006702;28;20041;-64
2021/12/27 06:47:04;;;;;;;152.25;40.35;;;;;;;3.36;92.41;100035.75;4985927;28;20037;-65
2021/12/27 06:49:33;;;;;;;211.32;40.00;;;;;;;3.38;92.43;100036.59;5008560;28;20121;-64
2021/12/27 06:51:59;;;;;;;104.32;31.33;;;;;;;3.37;92.61;100043.53;4990194;28;20072;-64
2021/12/27 06:54:24;;;;;;;231.80;41.10;;;;;;;3.39;92.42;100038.28;5008763;28;20142;-65
2021/12/27 06:56:49;;;;;;;82.10;22.85;;;;;;;3.40;92.58;100040.88;5006859;28;20068;-64
2021/12/27 06:59:15;;;;;;;69.80;22.80;;;;;;;3.43;92.54;100034.75;5009074;28;20074;-64
2021/12/27 07:01:40;;;;;;;128.63;36.63;;;;;;;3.44;92.39;100044.28;5008238;28;20037;-64
2021/12/27 07:04:06;;;;;;;100.38;28.27;;;;;;;3.46;92.48;100039.06;5002492;28;20033;-64
2021/12/27 07:06:31;;;;;;;106.55;30.30;;;;;;;3.46;92.60;100039.06;5002224;28;20484;-64
2021/12/27 07:08:57;;;;;;;132.23;32.15;;;;;;;3.52;92.52;100034.59;5008361;28;20028;-65
2021/12/27 07:11:22;;;;;;;155.13;39.03;;;;;;;3.56;92.58;100030.19;5006790;28;20022;-64
2021/12/27 07:13:47;;;;;;;128.93;32.17;;;;;;;3.58;92.52;100028.41;4990966;28;20046;-65
2021/12/27 07:16:13;;;;;;;160.93;33.55;;;;;;;3.59;92.52;100024.06;5011665;28;20354;-63
2021/12/27 07:18:38;;;;;;;118.40;30.80;;;;;;;3.62;92.59;100021.41;5028335;28;20399;-63
2021/12/27 07:21:03;;;;;;;142.80;38.47;;;;;;;3.66;92.66;100020.47;5023939;28;20315;-64
2021/12/27 07:23:29;;;;;;;119.78;29.15;;;;;;;3.70;92.66;100019.50;5007292;28;20033;-65
2021/12/27 07:25:54;;;;;;;130.63;34.20;;;;;;;3.69;92.56;100015.19;5007207;28;20109;-64
2021/12/27 07:28:20;;;;;;;142.60;34.22;;;;;;;3.72;92.48;100015.13;5020107;28;20136;-65
2021/12/27 07:30:45;;;;;;;189.15;37.83;;;;;;;3.75;92.73;100022.91;5027638;28;20067;-64
2021/12/27 07:33:10;;;;;;;112.88;29.92;;;;;;;3.77;92.86;100022.88;4998797;28;20030;-65
2021/12/27 07:35:36;;;;;;;153.23;39.33;;;;;;;3.79;92.84;100021.94;4997320;28;20011;-64
2021/12/27 07:38:02;;;;;;;153.60;38.25;;;;;;;3.84;92.89;100023.59;4991365;28;20100;-63
2021/12/27 07:40:28;;;;;;;125.20;28.30;;;;;;;3.87;92.85;100018.34;5008032;28;20014;-63
2021/12/27 07:42:54;;;;;;;142.70;33.63;;;;;;;3.91;92.83;100015.63;5005679;28;20081;-64
2021/12/27 07:45:19;;;;;;;295.35;41.75;;;;;;;3.91;92.75;100010.44;5008157;28;20443;-64
2021/12/27 07:47:45;;;;;;;210.95;33.30;;;;;;;3.99;92.94;100014.63;5005484;28;20030;-64
2021/12/27 07:50:10;;;;;;;144.40;38.05;;;;;;;3.99;92.97;100012.88;5004694;28;20025;-65
2021/12/27 07:52:35;;;;;;;94.97;24.02;;;;;;;4.03;92.69;100024.97;5006175;28;20033;-62
2021/12/27 07:55:01;;;;;;;136.32;37.47;;;;;;;4.02;92.79;100025.00;5006336;28;20105;-63
2021/12/27 07:57:26;;;;;;;85.15;22.30;;;;;;;4.04;92.90;100031.88;5007398;28;20117;-62
2021/12/27 07:59:52;;;;;;;166.75;38.15;;;;;;;4.03;92.91;100021.50;5006597;28;20034;-61
2021/12/27 08:02:17;;;;;;;150.88;37.55;;;;;;;4.07;92.86;100019.69;4987910;28;20030;-61
2021/12/27 08:04:43;;;;;;;162.10;35.17;;;;;;;4.07;92.97;100017.97;5005304;28;20038;-62
2021/12/27 08:07:08;;;;;;;100.63;28.20;;;;;;;4.12;92.81;100017.88;5006669;28;20029;-65
2021/12/27 08:09:34;;;;;;;150.40;37.55;;;;;;;4.10;92.76;100022.25;5006948;28;20026;-64
2021/12/27 08:11:59;;;;;;;108.53;28.95;;;;;;;4.10;92.87;100014.41;5005874;28;20387;-65
2021/12/27 08:14:25;;;;;;;103.03;26.42;;;;;;;4.15;92.92;100012.56;5006753;28;20095;-66
2021/12/27 08:16:50;;;;;;;142.07;38.83;;;;;;;4.18;92.79;100012.50;5005316;28;20057;-66
2021/12/27 08:19:15;;;;;;;324.75;42.92;;;;;;;4.15;92.80;100012.56;5006201;28;20076;-66
2021/12/27 08:21:41;;;;;;;148.90;39.42;;;;;;;4.15;92.72;100012.56;5006953;28;20388;-65
2021/12/27 08:24:06;;;;;;;118.15;31.02;;;;;;;4.15;92.93;100010.81;5006139;28;20032;-63
2021/12/27 08:26:32;;;;;;;134.25;31.45;;;;;;;4.21;92.71;100011.59;5005271;28;20030;-69
2021/12/27 08:28:58;;;;;;;382.33;42.72;;;;;;;4.19;92.66;100008.16;5006317;28;20101;-61
2021/12/27 08:31:23;;;;;;;146.98;35.50;;;;;;;4.18;92.90;99999.47;5006639;28;20014;-61
2021/12/27 08:33:48;;;;;;;359.67;40.22;;;;;;;4.20;92.70;100000.31;5003521;28;20022;-66
2021/12/27 08:36:14;;;;;;;206.45;37.83;;;;;;;4.17;93.26;99992.53;5002692;28;20084;-66
2021/12/27 08:38:40;;;;;;;135.98;37.58;;;;;;;4.20;92.81;99995.09;5005525;28;20121;-65
2021/12/27 08:41:05;;;;;;;110.75;28.85;;;;;;;4.23;92.80;99995.03;5001659;28;20049;-65
2021/12/27 08:43:30;;;;;;;179.50;32.53;;;;;;;4.24;92.89;99995.91;5005374;28;20399;-63
2021/12/27 08:45:57;;;;;;;159.10;31.55;;;;;;;4.27;92.60;99995.78;5005612;28;20022;-65
2021/12/27 08:48:22;;;;;;;117.88;26.63;;;;;;;4.28;92.67;99997.53;5004335;28;20057;-66
2021/12/27 08:50:48;;;;;;;150.98;38.92;;;;;;;4.29;92.72;99994.91;5002814;28;20072;-66
2021/12/27 08:53:14;;;;;;;103.57;31.33;;;;;;;4.37;92.65;99986.03;5005900;28;20030;-61
2021/12/27 08:55:39;;;;;;;294.33;39.90;;;;;;;4.36;92.75;99984.34;5006436;28;20113;-65
2021/12/27 08:58:05;;;;;;;268.52;38.63;;;;;;;4.32;92.71;99987.88;5005467;28;20029;-61
2021/12/27 09:00:31;;;;;;;177.35;36.50;;;;;;;4.35;92.54;99983.47;5006873;28;20044;-65
2021/12/27 09:02:57;;;;;;;184.45;35.05;;;;;;;4.34;92.53;99980.91;5005073;28;20029;-67
2021/12/27 09:05:23;;;;;;;147.02;26.67;;;;;;;4.41;92.46;99969.44;5003463;28;20050;-68
2021/12/27 09:07:48;;;;;;;113.70;32.42;;;;;;;4.45;92.41;99962.41;5004856;28;20041;-66
2021/12/27 09:10:14;;;;;;;116.53;32.00;;;;;;;4.53;92.21;99961.34;5006101;28;20387;-68
2021/12/27 09:12:40;;;;;;;150.73;30.02;;;;;;;4.54;91.87;99952.59;5004684;28;20064;-66
2021/12/27 09:15:06;;;;;;;118.20;31.65;;;;;;;4.50;91.50;99961.41;4986632;28;20026;-68
2021/12/27 09:17:32;;;;;;;155.18;32.20;;;;;;;4.48;91.72;99973.63;5004778;28;20026;-69
2021/12/27 09:19:57;;;;;;;125.72;32.20;;;;;;;4.46;91.75;99978.03;5003287;28;20045;-69
2021/12/27 09:22:22;;;;;;;110.53;31.48;;;;;;;4.45;92.01;99976.28;5004017;28;20046;-70
2021/12/27 09:24:48;;;;;;;93.85;30.38;;;;;;;4.47;92.00;99982.34;5005103;28;20040;-67
2021/12/27 09:27:13;;;;;;;132.73;32.63;;;;;;;4.50;92.14;99990.09;5001438;28;20026;-62
2021/12/27 09:29:41;;;;;;;103.10;32.78;;;;;;;4.49;92.12;99993.59;5003336;28;20158;-61
2021/12/27 09:32:06;;;;;;;87.95;30.95;;;;;;;4.57;92.04;99995.19;5004292;28;20099;-62
2021/12/27 09:34:32;;;;;;;91.28;32.92;;;;;;;4.64;91.81;100005.44;4984296;28;20472;-60
2021/12/27 09:36:57;;;;;;;87.82;28.67;;;;;;;4.68;91.81;100012.31;5005310;28;20026;-60
2021/12/27 09:39:22;;;;;;;177.82;33.08;;;;;;;4.71;91.88;100003.56;5004293;28;20483;-61
2021/12/27 09:41:48;;;;;;;128.18;35.58;;;;;;;4.70;91.79;99999.22;5004241;28;20093;-62
2021/12/27 09:44:13;;;;;;;107.60;32.47;;;;;;;4.76;92.09;99988.63;5007196;28;20033;-62
2021/12/27 09:46:39;;;;;;;49.83;19.63;;;;;;;4.85;91.99;99984.09;5006324;28;20057;-61
2021/12/27 09:49:09;;;;;;;138.82;31.55;;;;;;;4.87;91.76;99975.31;4991535;28;20041;-62
2021/12/27 09:51:37;;;;;;;96.72;30.02;;;;;;;4.87;91.46;99974.47;5004143;28;20116;-62
2021/12/27 09:54:03;;;;;;;108.93;31.13;;;;;;;4.82;91.52;99972.00;5008918;28;20095;-61
2021/12/27 09:56:28;;;;;;;93.78;29.20;;;;;;;4.86;91.70;99968.41;5011448;28;20037;-63
2021/12/27 09:58:55;;;;;;;169.73;29.67;;;;;;;4.97;91.45;99962.06;5008967;28;20468;-62
2021/12/27 10:01:20;;;;;;;125.65;30.00;;;;;;;4.91;91.38;99957.84;5008992;28;20022;-67
2021/12/27 10:03:56;;;;;;;139.20;30.58;;;;;;;4.95;91.25;99950.78;5020185;28;20052;-65
2021/12/27 10:06:23;;;;;;;81.93;30.25;;;;;;;5.06;91.42;99933.94;5029476;28;20045;-67
2021/12/27 10:08:51;;;;;;;46.90;19.38;;;;;;;5.25;91.15;99928.25;5014866;28;20116;-66
2021/12/27 10:11:31;;;;;;;87.60;26.05;;;;;;;5.25;90.33;99936.09;5009622;28;20076;-66
2021/12/27 10:14:13;;;;;;;67.65;25.50;;;;;;;5.18;90.41;99947.59;5008690;28;20026;-66
2021/12/27 10:16:46;;;;;;;105.82;26.48;;;;;;;5.12;90.54;99929.47;5009015;28;20037;-66
2021/12/27 10:19:16;;;;;;;131.45;28.35;;;;;;;5.09;90.54;99933.00;4987070;28;20097;-68
2021/12/27 10:21:41;;;;;;;111.90;27.70;;;;;;;5.03;90.86;99930.56;5005056;28;20022;-62
2021/12/27 10:24:16;;;;;;;99.95;27.63;;;;;;;5.08;91.07;99935.69;5007767;28;20137;-65
2021/12/27 10:26:43;;;;;;;76.15;25.88;;;;;;;5.13;90.76;99921.59;5006434;28;20591;-62
2021/12/27 10:29:18;;;;;;;81.75;24.10;;;;;;;5.13;90.70;99933.78;5007173;28;20556;-61
2021/12/27 10:32:04;;;;;;;167.45;27.63;;;;;;;5.14;90.76;99943.34;5007997;28;20052;-62
2021/12/27 10:34:35;;;;;;;80.38;26.52;;;;;;;5.09;90.93;99951.28;5009332;28;20034;-62
2021/12/27 10:37:15;;;;;;;120.75;29.08;;;;;;;5.10;91.05;99933.88;5017366;28;20029;-63
2021/12/27 10:39:46;;;;;;;74.85;26.42;;;;;;;5.16;91.22;99937.19;5029285;28;20249;-62
2021/12/27 10:42:21;;;;;;;59.03;22.58;;;;;;;5.22;91.17;99933.56;5027688;28;20042;-64
2021/12/27 10:44:51;;;;;;;62.40;22.65;;;;;;;5.28;91.12;99929.94;5012191;28;20065;-61
2021/12/27 10:47:33;;;;;;;76.85;24.88;;;;;;;5.31;90.99;99928.09;5008416;28;20542;-62
2021/12/27 10:50:03;;;;;;;86.95;27.25;;;;;;;5.35;91.11;99928.88;5007681;28;20030;-63
2021/12/27 10:52:49;;;;;;;77.50;27.15;;;;;;;5.36;90.98;99920.13;5008966;28;20024;-62
2021/12/27 10:55:18;;;;;;;69.68;27.27;;;;;;;5.46;90.83;99923.34;5006823;28;20073;-62
2021/12/27 10:57:43;;;;;;;63.97;25.38;;;;;;;5.55;90.66;99915.28;5007973;28;20538;-63
2021/12/27 11:00:20;;;;;;;57.53;23.90;;;;;;;5.66;90.59;99919.34;5007677;28;20018;-65
2021/12/27 11:02:46;;;;;;;57.67;22.98;;;;;;;5.74;90.47;99925.19;5005410;28;20029;-64
2021/12/27 11:05:13;;;;;;;63.85;24.92;;;;;;;5.73;90.10;99922.63;5007963;28;20058;-63
2021/12/27 11:07:39;;;;;;;47.08;21.17;;;;;;;5.77;90.04;99929.47;5008352;28;20074;-64
2021/12/27 11:10:05;;;;;;;52.58;23.20;;;;;;;5.79;90.17;99928.53;5007941;28;20025;-63
2021/12/27 11:12:31;;;;;;;49.10;20.63;;;;;;;5.81;90.19;99913.66;4989447;28;20105;-62
2021/12/27 11:14:56;;;;;;;59.03;23.52;;;;;;;5.89;90.26;99904.72;4989996;28;20526;-63
2021/12/27 11:17:21;;;;;;;53.17;21.48;;;;;;;6.01;89.60;99899.13;5008425;28;20014;-63
2021/12/27 11:19:47;;;;;;;36.70;16.35;;;;;;;6.11;89.15;99898.91;5011684;28;20388;-63
2021/12/27 11:22:12;;;;;;;55.78;22.15;;;;;;;6.02;89.05;99887.75;5007888;28;20048;-63
2021/12/27 11:24:39;;;;;;;64.75;24.75;;;;;;;6.01;89.62;99879.97;5006578;28;20603;-64